sensor_id;sensor_type;location;lat;lon;timestamp;pressure;altitude;pressure_sealevel;temperature;humidity
59289;BME280;45056;47.602;9.886;2022-11-20T00:01:34;92419.22;;;6.33;69.62
59289;BME280;45056;47.602;9.886;2022-11-20T00:04:02;92423.84;;;6.32;69.65
59289;BME280;45056;47.602;9.886;2022-11-20T00:06:30;92422.34;;;6.31;69.66
59289;BME280;45056;47.602;9.886;2022-11-20T00:09:00;92426.22;;;6.30;69.43
59289;BME280;45056;47.602;9.886;2022-11-20T00:11:30;92420.81;;;6.30;69.74
59289;BME280;45056;47.602;9.886;2022-11-20T00:14:00;92425.81;;;6.32;69.69
59289;BME280;45056;47.602;9.886;2022-11-20T00:16:32;92425.81;;;6.32;69.71
59289;BME280;45056;47.602;9.886;2022-11-20T00:19:02;92427.41;;;6.29;69.45
59289;BME280;45056;47.602;9.886;2022-11-20T00:21:30;92423.63;;;6.27;69.67
59289;BME280;45056;47.602;9.886;2022-11-20T00:23:59;92423.63;;;6.27;69.83
59289;BME280;45056;47.602;9.886;2022-11-20T00:26:28;92428.59;;;6.28;69.80
59289;BME280;45056;47.602;9.886;2022-11-20T00:28:58;92426.75;;;6.25;69.78
59289;BME280;45056;47.602;9.886;2022-11-20T00:31:28;92431.41;;;6.25;69.80
59289;BME280;45056;47.602;9.886;2022-11-20T00:33:58;92424.13;;;6.21;69.82
59289;BME280;45056;47.602;9.886;2022-11-20T00:36:28;92434.19;;;6.21;69.77
59289;BME280;45056;47.602;9.886;2022-11-20T00:38:59;92433.53;;;6.17;70.01
59289;BME280;45056;47.602;9.886;2022-11-20T00:41:29;92435.13;;;6.14;70.13
59289;BME280;45056;47.602;9.886;2022-11-20T00:43:57;92445.19;;;6.14;70.06
59289;BME280;45056;47.602;9.886;2022-11-20T00:46:27;92439.47;;;6.12;70.08
59289;BME280;45056;47.602;9.886;2022-11-20T00:48:56;92447.22;;;6.10;70.18
59289;BME280;45056;47.602;9.886;2022-11-20T00:51:26;92454.56;;;6.09;70.27
59289;BME280;45056;47.602;9.886;2022-11-20T00:53:56;92451.84;;;6.09;70.17
59289;BME280;45056;47.602;9.886;2022-11-20T00:56:24;92451.19;;;6.05;70.09
59289;BME280;45056;47.602;9.886;2022-11-20T00:58:53;92451.19;;;6.05;70.24
59289;BME280;45056;47.602;9.886;2022-11-20T01:01:23;92449.56;;;6.07;70.21
59289;BME280;45056;47.602;9.886;2022-11-20T01:03:54;92454.56;;;6.09;70.28
59289;BME280;45056;47.602;9.886;2022-11-20T01:06:27;92453.03;;;6.08;70.08
59289;BME280;45056;47.602;9.886;2022-11-20T01:08:59;92454.22;;;6.07;70.14
59289;BME280;45056;47.602;9.886;2022-11-20T01:11:30;92451.84;;;6.09;70.26
59289;BME280;45056;47.602;9.886;2022-11-20T01:14:01;92456.94;;;6.07;70.19
59289;BME280;45056;47.602;9.886;2022-11-20T01:16:32;92460.47;;;6.04;70.18
59289;BME280;45056;47.602;9.886;2022-11-20T01:19:04;92460.88;;;6.02;70.39
59289;BME280;45056;47.602;9.886;2022-11-20T01:21:37;92464.03;;;6.01;70.28
59289;BME280;45056;47.602;9.886;2022-11-20T01:24:09;92469.06;;;5.99;70.33
59289;BME280;45056;47.602;9.886;2022-11-20T01:26:41;92458.34;;;5.95;70.27
59289;BME280;45056;47.602;9.886;2022-11-20T01:29:14;92465.00;;;5.90;70.38
59289;BME280;45056;47.602;9.886;2022-11-20T01:31:43;92461.56;;;5.90;70.41
59289;BME280;45056;47.602;9.886;2022-11-20T01:34:14;92460.03;;;5.89;70.35
59289;BME280;45056;47.602;9.886;2022-11-20T01:36:45;92466.28;;;5.86;70.48
59289;BME280;45056;47.602;9.886;2022-11-20T01:39:15;92465.63;;;5.82;70.61
59289;BME280;45056;47.602;9.886;2022-11-20T01:41:46;92466.03;;;5.80;70.84
59289;BME280;45056;47.602;9.886;2022-11-20T01:44:50;92467.97;;;5.80;70.86
59289;BME280;45056;47.602;9.886;2022-11-20T01:47:25;92476.50;;;5.78;70.92
59289;BME280;45056;47.602;9.886;2022-11-20T01:50:04;92467.72;;;5.74;71.01
59289;BME280;45056;47.602;9.886;2022-11-20T01:52:44;92476.56;;;5.74;71.13
59289;BME280;45056;47.602;9.886;2022-11-20T01:55:20;92472.78;;;5.72;71.09
59289;BME280;45056;47.602;9.886;2022-11-20T01:57:52;92475.56;;;5.68;71.35
59289;BME280;45056;47.602;9.886;2022-11-20T02:00:21;92475.16;;;5.70;71.46
59289;BME280;45056;47.602;9.886;2022-11-20T02:02:53;92475.16;;;5.70;71.12
59289;BME280;45056;47.602;9.886;2022-11-20T02:05:30;92473.63;;;5.69;70.67
59289;BME280;45056;47.602;9.886;2022-11-20T02:08:05;92468.22;;;5.69;70.77
59289;BME280;45056;47.602;9.886;2022-11-20T02:10:35;92474.81;;;5.68;70.55
59289;BME280;45056;47.602;9.886;2022-11-20T02:13:03;92467.91;;;5.67;70.54
59289;BME280;45056;47.602;9.886;2022-11-20T02:15:50;92468.63;;;5.67;70.41
59289;BME280;45056;47.602;9.886;2022-11-20T02:18:20;92465.53;;;5.69;70.44
59289;BME280;45056;47.602;9.886;2022-11-20T02:20:55;92469.41;;;5.68;70.41
59289;BME280;45056;47.602;9.886;2022-11-20T02:23:36;92465.53;;;5.69;70.33
59289;BME280;45056;47.602;9.886;2022-11-20T02:26:13;92465.88;;;5.71;70.46
59289;BME280;45056;47.602;9.886;2022-11-20T02:28:43;92470.09;;;5.72;70.52
59289;BME280;45056;47.602;9.886;2022-11-20T02:31:12;92463.50;;;5.73;70.18
59289;BME280;45056;47.602;9.886;2022-11-20T02:33:40;92464.25;;;5.73;70.23
59289;BME280;45056;47.602;9.886;2022-11-20T02:36:28;92461.13;;;5.75;70.22
59289;BME280;45056;47.602;9.886;2022-11-20T02:38:59;92463.41;;;5.76;70.33
59289;BME280;45056;47.602;9.886;2022-11-20T02:41:33;92465.69;;;5.78;70.19
59289;BME280;45056;47.602;9.886;2022-11-20T02:44:04;92470.69;;;5.80;70.14
59289;BME280;45056;47.602;9.886;2022-11-20T02:46:33;92471.44;;;5.80;70.13
59289;BME280;45056;47.602;9.886;2022-11-20T02:49:03;92469.16;;;5.78;70.34
59289;BME280;45056;47.602;9.886;2022-11-20T02:51:32;92464.19;;;5.77;70.36
59289;BME280;45056;47.602;9.886;2022-11-20T02:54:00;92471.09;;;5.78;70.29
59289;BME280;45056;47.602;9.886;2022-11-20T02:56:30;92467.28;;;5.75;70.33
59289;BME280;45056;47.602;9.886;2022-11-20T02:58:59;92464.25;;;5.73;70.39
59289;BME280;45056;47.602;9.886;2022-11-20T03:01:27;92462.00;;;5.72;70.46
59289;BME280;45056;47.602;9.886;2022-11-20T03:03:55;92467.38;;;5.72;70.50
59289;BME280;45056;47.602;9.886;2022-11-20T03:06:23;92465.88;;;5.71;70.60
59289;BME280;45056;47.602;9.886;2022-11-20T03:08:51;92464.75;;;5.68;70.31
59289;BME280;45056;47.602;9.886;2022-11-20T03:11:20;92474.47;;;5.66;70.50
59289;BME280;45056;47.602;9.886;2022-11-20T03:13:48;92464.84;;;5.65;70.48
59289;BME280;45056;47.602;9.886;2022-11-20T03:16:20;92462.16;;;5.65;70.39
59289;BME280;45056;47.602;9.886;2022-11-20T03:18:52;92465.25;;;5.63;69.92
59289;BME280;45056;47.602;9.886;2022-11-20T03:21:20;92460.72;;;5.60;70.09
59289;BME280;45056;47.602;9.886;2022-11-20T03:23:48;92465.78;;;5.58;70.21
59289;BME280;45056;47.602;9.886;2022-11-20T03:26:18;92468.47;;;5.58;70.06
59289;BME280;45056;47.602;9.886;2022-11-20T03:28:49;92473.09;;;5.57;70.20
59289;BME280;45056;47.602;9.886;2022-11-20T03:31:22;92473.09;;;5.57;70.12
59289;BME280;45056;47.602;9.886;2022-11-20T03:33:52;92478.50;;;5.57;70.20
59289;BME280;45056;47.602;9.886;2022-11-20T03:36:21;92475.06;;;5.57;69.96
59289;BME280;45056;47.602;9.886;2022-11-20T03:38:49;92478.16;;;5.55;69.89
59289;BME280;45056;47.602;9.886;2022-11-20T03:41:19;92473.53;;;5.56;69.90
59289;BME280;45056;47.602;9.886;2022-11-20T03:43:50;92471.69;;;5.53;69.74
59289;BME280;45056;47.602;9.886;2022-11-20T03:46:20;92475.97;;;5.50;69.67
59289;BME280;45056;47.602;9.886;2022-11-20T03:48:49;92479.44;;;5.51;69.69
59289;BME280;45056;47.602;9.886;2022-11-20T03:51:19;92492.59;;;5.48;69.33
59289;BME280;45056;47.602;9.886;2022-11-20T03:53:51;92481.47;;;5.46;69.35
59289;BME280;45056;47.602;9.886;2022-11-20T03:56:24;92484.56;;;5.45;69.33
59289;BME280;45056;47.602;9.886;2022-11-20T03:58:53;92488.09;;;5.42;69.39
59289;BME280;45056;47.602;9.886;2022-11-20T04:01:25;92488.84;;;5.42;69.58
59289;BME280;45056;47.602;9.886;2022-11-20T04:03:56;92486.59;;;5.41;69.63
59289;BME280;45056;47.602;9.886;2022-11-20T04:06:26;92494.34;;;5.39;69.72
59289;BME280;45056;47.602;9.886;2022-11-20T04:08:56;92497.03;;;5.39;69.61
59289;BME280;45056;47.602;9.886;2022-11-20T04:11:26;92491.63;;;5.39;69.81
59289;BME280;45056;47.602;9.886;2022-11-20T04:13:58;92494.69;;;5.41;69.71
59289;BME280;45056;47.602;9.886;2022-11-20T04:16:31;92493.84;;;5.44;69.71
59289;BME280;45056;47.602;9.886;2022-11-20T04:19:03;92490.31;;;5.47;69.70
59289;BME280;45056;47.602;9.886;2022-11-20T04:21:32;92491.81;;;5.48;69.74
59289;BME280;45056;47.602;9.886;2022-11-20T04:24:02;92497.22;;;5.48;69.86
59289;BME280;45056;47.602;9.886;2022-11-20T04:26:30;92494.84;;;5.50;69.51
59289;BME280;45056;47.602;9.886;2022-11-20T04:28:59;92491.41;;;5.49;69.52
59289;BME280;45056;47.602;9.886;2022-11-20T04:31:31;92487.09;;;5.52;69.31
59289;BME280;45056;47.602;9.886;2022-11-20T04:34:03;92491.75;;;5.52;69.06
59289;BME280;45056;47.602;9.886;2022-11-20T04:36:34;92486.75;;;5.50;69.08
59289;BME280;45056;47.602;9.886;2022-11-20T04:39:05;92490.97;;;5.51;68.86
59289;BME280;45056;47.602;9.886;2022-11-20T04:41:35;92490.97;;;5.51;68.98
59289;BME280;45056;47.602;9.886;2022-11-20T04:44:05;92493.25;;;5.53;69.04
59289;BME280;45056;47.602;9.886;2022-11-20T04:46:37;92491.31;;;5.53;68.90
59289;BME280;45056;47.602;9.886;2022-11-20T04:49:07;92493.25;;;5.53;68.41
59289;BME280;45056;47.602;9.886;2022-11-20T04:51:35;92490.56;;;5.53;68.83
59289;BME280;45056;47.602;9.886;2022-11-20T04:54:03;92489.38;;;5.54;68.64
59289;BME280;45056;47.602;9.886;2022-11-20T04:56:31;92488.63;;;5.53;68.62
59289;BME280;45056;47.602;9.886;2022-11-20T04:59:00;92488.63;;;5.53;68.44
59289;BME280;45056;47.602;9.886;2022-11-20T05:01:29;92486.69;;;5.54;68.39
59289;BME280;45056;47.602;9.886;2022-11-20T05:04:00;92490.13;;;5.54;68.58
59289;BME280;45056;47.602;9.886;2022-11-20T05:06:28;92490.91;;;5.55;68.56
59289;BME280;45056;47.602;9.886;2022-11-20T05:08:56;92490.13;;;5.54;68.34
59289;BME280;45056;47.602;9.886;2022-11-20T05:11:24;92488.22;;;5.55;68.31
59289;BME280;45056;47.602;9.886;2022-11-20T05:13:55;92492.84;;;5.54;68.22
59289;BME280;45056;47.602;9.886;2022-11-20T05:16:26;92494.00;;;5.53;68.16
59289;BME280;45056;47.602;9.886;2022-11-20T05:18:54;92499.41;;;5.53;68.03
59289;BME280;45056;47.602;9.886;2022-11-20T05:21:24;92499.41;;;5.53;68.10
59289;BME280;45056;47.602;9.886;2022-11-20T05:23:52;92499.00;;;5.55;67.97
59289;BME280;45056;47.602;9.886;2022-11-20T05:26:21;92503.97;;;5.56;67.98
59289;BME280;45056;47.602;9.886;2022-11-20T05:28:51;92505.47;;;5.57;68.07
59289;BME280;45056;47.602;9.886;2022-11-20T05:31:21;92505.06;;;5.59;67.83
59289;BME280;45056;47.602;9.886;2022-11-20T05:33:51;92504.31;;;5.58;67.97
59289;BME280;45056;47.602;9.886;2022-11-20T05:36:19;92510.03;;;5.60;67.95
59289;BME280;45056;47.602;9.886;2022-11-20T05:38:49;92515.44;;;5.60;68.00
59289;BME280;45056;47.602;9.886;2022-11-20T05:41:19;92508.13;;;5.61;67.72
59289;BME280;45056;47.602;9.886;2022-11-20T05:43:49;92514.25;;;5.61;67.52
59289;BME280;45056;47.602;9.886;2022-11-20T05:46:20;92511.94;;;5.63;67.46
59289;BME280;45056;47.602;9.886;2022-11-20T05:48:48;92511.94;;;5.63;67.18
59289;BME280;45056;47.602;9.886;2022-11-20T05:51:18;92515.72;;;5.66;67.04
59289;BME280;45056;47.602;9.886;2022-11-20T05:53:48;92513.00;;;5.66;66.96
59289;BME280;45056;47.602;9.886;2022-11-20T05:56:18;92513.00;;;5.66;66.65
59289;BME280;45056;47.602;9.886;2022-11-20T05:58:48;92516.47;;;5.67;66.29
59289;BME280;45056;47.602;9.886;2022-11-20T06:01:19;92518.00;;;5.68;66.35
59289;BME280;45056;47.602;9.886;2022-11-20T06:03:49;92520.69;;;5.68;66.22
59289;BME280;45056;47.602;9.886;2022-11-20T06:06:19;92515.31;;;5.68;66.17
59289;BME280;45056;47.602;9.886;2022-11-20T06:08:49;92504.91;;;5.66;66.04
59289;BME280;45056;47.602;9.886;2022-11-20T06:11:18;92506.53;;;5.63;65.93
59289;BME280;45056;47.602;9.886;2022-11-20T06:13:46;92511.16;;;5.63;66.03
59289;BME280;45056;47.602;9.886;2022-11-20T06:16:17;92511.16;;;5.63;66.08
59289;BME280;45056;47.602;9.886;2022-11-20T06:18:47;92513.44;;;5.65;65.91
59289;BME280;45056;47.602;9.886;2022-11-20T06:21:17;92516.16;;;5.65;65.88
59289;BME280;45056;47.602;9.886;2022-11-20T06:23:49;92521.53;;;5.65;65.84
59289;BME280;45056;47.602;9.886;2022-11-20T06:26:20;92518.06;;;5.64;65.73
59289;BME280;45056;47.602;9.886;2022-11-20T06:28:50;92516.16;;;5.65;65.66
59289;BME280;45056;47.602;9.886;2022-11-20T06:31:23;92523.06;;;5.66;65.69
59289;BME280;45056;47.602;9.886;2022-11-20T06:33:55;92522.22;;;5.69;65.87
59289;BME280;45056;47.602;9.886;2022-11-20T06:36:23;92520.25;;;5.69;65.64
59289;BME280;45056;47.602;9.886;2022-11-20T06:38:52;92518.34;;;5.70;65.65
59289;BME280;45056;47.602;9.886;2022-11-20T06:41:22;92521.38;;;5.72;65.82
59289;BME280;45056;47.602;9.886;2022-11-20T06:43:50;92529.81;;;5.74;65.84
59289;BME280;45056;47.602;9.886;2022-11-20T06:46:19;92533.69;;;5.73;65.88
59289;BME280;45056;47.602;9.886;2022-11-20T06:48:49;92537.91;;;5.74;66.06
59289;BME280;45056;47.602;9.886;2022-11-20T06:51:18;92531.31;;;5.75;66.02
59289;BME280;45056;47.602;9.886;2022-11-20T06:53:46;92534.78;;;5.75;66.22
59289;BME280;45056;47.602;9.886;2022-11-20T06:56:16;92546.69;;;5.78;66.14
59289;BME280;45056;47.602;9.886;2022-11-20T06:58:44;92543.56;;;5.80;66.09
59289;BME280;45056;47.602;9.886;2022-11-20T07:01:14;92550.50;;;5.81;66.26
59289;BME280;45056;47.602;9.886;2022-11-20T07:03:43;92554.38;;;5.80;65.99
59289;BME280;45056;47.602;9.886;2022-11-20T07:06:11;92547.78;;;5.81;66.05
59289;BME280;45056;47.602;9.886;2022-11-20T07:08:39;92559.34;;;5.81;66.04
59289;BME280;45056;47.602;9.886;2022-11-20T07:11:08;92557.81;;;5.80;65.77
59289;BME280;45056;47.602;9.886;2022-11-20T07:13:40;92551.69;;;5.80;65.67
59289;BME280;45056;47.602;9.886;2022-11-20T07:16:08;92555.13;;;5.80;65.70
59289;BME280;45056;47.602;9.886;2022-11-20T07:18:37;92558.25;;;5.78;65.55
59289;BME280;45056;47.602;9.886;2022-11-20T07:21:07;92554.78;;;5.78;65.50
59289;BME280;45056;47.602;9.886;2022-11-20T07:23:37;92559.00;;;5.79;65.35
59289;BME280;45056;47.602;9.886;2022-11-20T07:26:06;92569.81;;;5.79;65.18
59289;BME280;45056;47.602;9.886;2022-11-20T07:28:36;92560.53;;;5.80;65.19
59289;BME280;45056;47.602;9.886;2022-11-20T07:31:06;92572.50;;;5.79;65.26
59289;BME280;45056;47.602;9.886;2022-11-20T07:33:34;92559.00;;;5.79;65.38
59289;BME280;45056;47.602;9.886;2022-11-20T07:36:03;92565.16;;;5.80;65.15
59289;BME280;45056;47.602;9.886;2022-11-20T07:38:32;92568.22;;;5.82;65.26
59289;BME280;45056;47.602;9.886;2022-11-20T07:41:00;92568.22;;;5.82;65.23
59289;BME280;45056;47.602;9.886;2022-11-20T07:43:29;92568.13;;;5.85;65.29
59289;BME280;45056;47.602;9.886;2022-11-20T07:45:58;92562.31;;;5.87;65.28
59289;BME280;45056;47.602;9.886;2022-11-20T07:48:27;92578.06;;;5.88;65.31
59289;BME280;45056;47.602;9.886;2022-11-20T07:50:56;92574.19;;;5.89;64.99
59289;BME280;45056;47.602;9.886;2022-11-20T07:53:24;92576.50;;;5.91;64.82
59289;BME280;45056;47.602;9.886;2022-11-20T07:55:52;92572.59;;;5.92;64.88
59289;BME280;45056;47.602;9.886;2022-11-20T07:58:21;92575.66;;;5.94;64.74
59289;BME280;45056;47.602;9.886;2022-11-20T08:00:49;92576.41;;;5.95;64.58
59289;BME280;45056;47.602;9.886;2022-11-20T08:03:17;92580.63;;;5.96;64.60
59289;BME280;45056;47.602;9.886;2022-11-20T08:05:47;92575.22;;;5.96;64.61
59289;BME280;45056;47.602;9.886;2022-11-20T08:08:15;92580.97;;;5.98;64.67
59289;BME280;45056;47.602;9.886;2022-11-20T08:10:43;92577.84;;;5.99;64.89
59289;BME280;45056;47.602;9.886;2022-11-20T08:13:11;92573.56;;;6.02;64.75
59289;BME280;45056;47.602;9.886;2022-11-20T08:15:56;92575.84;;;6.03;64.72
59289;BME280;45056;47.602;9.886;2022-11-20T08:18:24;92572.81;;;6.01;64.30
59289;BME280;45056;47.602;9.886;2022-11-20T08:20:53;92578.53;;;6.03;64.41
59289;BME280;45056;47.602;9.886;2022-11-20T08:23:22;92576.63;;;6.04;64.38
59289;BME280;45056;47.602;9.886;2022-11-20T08:25:50;92578.53;;;6.03;64.36
59289;BME280;45056;47.602;9.886;2022-11-20T08:28:18;92573.13;;;6.03;64.30
59289;BME280;45056;47.602;9.886;2022-11-20T08:30:48;92571.53;;;6.06;64.38
59289;BME280;45056;47.602;9.886;2022-11-20T08:33:17;92568.34;;;6.11;64.30
59289;BME280;45056;47.602;9.886;2022-11-20T08:35:46;92563.59;;;6.15;64.33
59289;BME280;45056;47.602;9.886;2022-11-20T08:38:15;92566.97;;;6.19;63.93
59289;BME280;45056;47.602;9.886;2022-11-20T08:40:43;92573.06;;;6.24;63.56
59289;BME280;45056;47.602;9.886;2022-11-20T08:43:31;92573.41;;;6.26;62.93
59289;BME280;45056;47.602;9.886;2022-11-20T08:46:00;92576.34;;;6.31;63.00
59289;BME280;45056;47.602;9.886;2022-11-20T08:48:28;92570.88;;;6.35;62.83
59289;BME280;45056;47.602;9.886;2022-11-20T08:50:57;92569.69;;;6.36;62.61
59289;BME280;45056;47.602;9.886;2022-11-20T08:53:28;92576.63;;;6.37;62.62
59289;BME280;45056;47.602;9.886;2022-11-20T08:55:56;92576.19;;;6.39;62.54
59289;BME280;45056;47.602;9.886;2022-11-20T08:58:25;92576.53;;;6.41;62.58
59289;BME280;45056;47.602;9.886;2022-11-20T09:00:53;92574.06;;;6.46;62.46
59289;BME280;45056;47.602;9.886;2022-11-20T09:03:22;92572.03;;;6.50;62.07
59289;BME280;45056;47.602;9.886;2022-11-20T09:05:57;92570.44;;;6.53;61.97
59289;BME280;45056;47.602;9.886;2022-11-20T09:08:28;92563.84;;;6.54;61.96
59289;BME280;45056;47.602;9.886;2022-11-20T09:10:58;92570.34;;;6.57;61.97
59289;BME280;45056;47.602;9.886;2022-11-20T09:13:28;92567.66;;;6.57;62.36
59289;BME280;45056;47.602;9.886;2022-11-20T09:15:58;92568.00;;;6.59;62.60
59289;BME280;45056;47.602;9.886;2022-11-20T09:18:28;92562.13;;;6.60;62.32
59289;BME280;45056;47.602;9.886;2022-11-20T09:20:58;92562.13;;;6.60;62.27
59289;BME280;45056;47.602;9.886;2022-11-20T09:23:33;92561.28;;;6.63;62.29
59289;BME280;45056;47.602;9.886;2022-11-20T09:26:04;92565.84;;;6.67;62.36
59289;BME280;45056;47.602;9.886;2022-11-20T09:28:33;92570.84;;;6.68;62.08
59289;BME280;45056;47.602;9.886;2022-11-20T09:31:04;92565.34;;;6.72;61.89
59289;BME280;45056;47.602;9.886;2022-11-20T09:33:33;92564.16;;;6.73;61.48
59289;BME280;45056;47.602;9.886;2022-11-20T09:36:01;92569.91;;;6.75;61.28
59289;BME280;45056;47.602;9.886;2022-11-20T09:38:29;92570.66;;;6.75;60.93
59289;BME280;45056;47.602;9.886;2022-11-20T09:41:03;92561.03;;;6.74;60.69
59289;BME280;45056;47.602;9.886;2022-11-20T09:43:56;92558.41;;;6.71;60.20
59289;BME280;45056;47.602;9.886;2022-11-20T09:46:40;92568.47;;;6.70;60.03
59289;BME280;45056;47.602;9.886;2022-11-20T09:49:26;92568.13;;;6.68;60.26
59289;BME280;45056;47.602;9.886;2022-11-20T09:52:15;92576.66;;;6.67;60.47
59289;BME280;45056;47.602;9.886;2022-11-20T09:54:56;92577.09;;;6.65;60.87
59289;BME280;45056;47.602;9.886;2022-11-20T09:57:34;92577.09;;;6.65;61.16
59289;BME280;45056;47.602;9.886;2022-11-20T10:00:09;92579.47;;;6.63;61.33
59289;BME280;45056;47.602;9.886;2022-11-20T10:02:44;92568.66;;;6.63;61.30
59289;BME280;45056;47.602;9.886;2022-11-20T10:05:20;92564.75;;;6.64;61.35
59289;BME280;45056;47.602;9.886;2022-11-20T10:07:59;92569.31;;;6.67;61.23
59289;BME280;45056;47.602;9.886;2022-11-20T10:10:42;92560.69;;;6.72;61.26
59289;BME280;45056;47.602;9.886;2022-11-20T10:13:28;92565.16;;;6.79;61.36
59289;BME280;45056;47.602;9.886;2022-11-20T10:16:19;92570.03;;;6.84;60.94
59289;BME280;45056;47.602;9.886;2022-11-20T10:19:07;92566.47;;;6.87;60.93
59289;BME280;45056;47.602;9.886;2022-11-20T10:21:53;92573.31;;;6.92;60.96
59289;BME280;45056;47.602;9.886;2022-11-20T10:24:43;92564.69;;;6.97;60.53
59289;BME280;45056;47.602;9.886;2022-11-20T10:27:39;92566.53;;;7.00;60.57
59289;BME280;45056;47.602;9.886;2022-11-20T10:30:21;92555.63;;;7.04;60.42
59289;BME280;45056;47.602;9.886;2022-11-20T10:32:54;92557.03;;;7.08;59.87
59289;BME280;45056;47.602;9.886;2022-11-20T10:35:35;92564.72;;;7.10;59.67
59289;BME280;45056;47.602;9.886;2022-11-20T10:38:15;92565.06;;;7.12;59.83
59289;BME280;45056;47.602;9.886;2022-11-20T10:40:52;92562.34;;;7.12;59.43
59289;BME280;45056;47.602;9.886;2022-11-20T10:43:45;92562.78;;;7.11;59.82
59289;BME280;45056;47.602;9.886;2022-11-20T10:46:20;92558.88;;;7.12;60.07
59289;BME280;45056;47.602;9.886;2022-11-20T10:48:51;92558.78;;;7.15;60.05
59289;BME280;45056;47.602;9.886;2022-11-20T10:51:31;92558.72;;;7.19;59.73
59289;BME280;45056;47.602;9.886;2022-11-20T10:54:12;92555.13;;;7.22;59.59
59289;BME280;45056;47.602;9.886;2022-11-20T10:56:51;92556.66;;;7.23;59.67
59289;BME280;45056;47.602;9.886;2022-11-20T10:59:41;92555.88;;;7.22;59.64
59289;BME280;45056;47.602;9.886;2022-11-20T11:02:22;92559.38;;;7.23;59.56
59289;BME280;45056;47.602;9.886;2022-11-20T11:04:53;92549.28;;;7.24;59.60
59289;BME280;45056;47.602;9.886;2022-11-20T11:07:24;92552.44;;;7.22;59.71
59289;BME280;45056;47.602;9.886;2022-11-20T11:09:58;92548.53;;;7.23;59.72
59289;BME280;45056;47.602;9.886;2022-11-20T11:12:28;92543.47;;;7.25;59.74
59289;BME280;45056;47.602;9.886;2022-11-20T11:14:57;92541.41;;;7.29;59.57
59289;BME280;45056;47.602;9.886;2022-11-20T11:17:29;92539.03;;;7.31;59.39
59289;BME280;45056;47.602;9.886;2022-11-20T11:20:01;92541.28;;;7.33;59.21
59289;BME280;45056;47.602;9.886;2022-11-20T11:22:43;92535.53;;;7.31;58.93
59289;BME280;45056;47.602;9.886;2022-11-20T11:25:23;92535.22;;;7.29;59.14
59289;BME280;45056;47.602;9.886;2022-11-20T11:27:56;92545.38;;;7.25;59.16
59289;BME280;45056;47.602;9.886;2022-11-20T11:30:27;92538.56;;;7.20;59.16
59289;BME280;45056;47.602;9.886;2022-11-20T11:33:10;92538.25;;;7.18;59.23
59289;BME280;45056;47.602;9.886;2022-11-20T11:35:47;92544.00;;;7.20;59.41
59289;BME280;45056;47.602;9.886;2022-11-20T11:38:23;92528.50;;;7.20;58.76
59289;BME280;45056;47.602;9.886;2022-11-20T11:40:58;92536.94;;;7.22;58.54
59289;BME280;45056;47.602;9.886;2022-11-20T11:43:31;92525.38;;;7.22;58.03
59289;BME280;45056;47.602;9.886;2022-11-20T11:46:28;92522.66;;;7.22;57.37
59289;BME280;45056;47.602;9.886;2022-11-20T11:49:01;92518.13;;;7.19;56.98
59289;BME280;45056;47.602;9.886;2022-11-20T11:51:58;92520.81;;;7.19;57.15
59289;BME280;45056;47.602;9.886;2022-11-20T11:54:36;92511.06;;;7.21;57.32
59289;BME280;45056;47.602;9.886;2022-11-20T11:57:15;92516.06;;;7.23;57.26
59289;BME280;45056;47.602;9.886;2022-11-20T12:00:02;92509.13;;;7.22;57.25
59289;BME280;45056;47.602;9.886;2022-11-20T12:02:48;92512.72;;;7.19;56.73
59289;BME280;45056;47.602;9.886;2022-11-20T12:05:30;92506.28;;;7.13;56.81
59289;BME280;45056;47.602;9.886;2022-11-20T12:08:15;92506.28;;;7.13;57.68
59289;BME280;45056;47.602;9.886;2022-11-20T12:10:56;92508.03;;;7.19;58.41
59289;BME280;45056;47.602;9.886;2022-11-20T12:13:44;92509.47;;;7.24;57.54
59289;BME280;45056;47.602;9.886;2022-11-20T12:16:20;92495.16;;;7.24;57.29
59289;BME280;45056;47.602;9.886;2022-11-20T12:18:51;92506.84;;;7.20;57.17
59289;BME280;45056;47.602;9.886;2022-11-20T12:21:31;92503.16;;;7.14;57.16
59289;BME280;45056;47.602;9.886;2022-11-20T12:24:22;92501.41;;;7.07;57.39
59289;BME280;45056;47.602;9.886;2022-11-20T12:30:24;92492.19;;;6.92;57.94
59289;BME280;45056;47.602;9.886;2022-11-20T12:33:12;92487.63;;;6.89;58.14
59289;BME280;45056;47.602;9.886;2022-11-20T12:36:16;92493.78;;;6.89;58.12
59289;BME280;45056;47.602;9.886;2022-11-20T12:42:23;92494.13;;;6.91;58.17
59289;BME280;45056;47.602;9.886;2022-11-20T12:45:54;92490.34;;;6.89;58.08
59289;BME280;45056;47.602;9.886;2022-11-20T12:49:05;92479.19;;;6.87;58.11
59289;BME280;45056;47.602;9.886;2022-11-20T12:52:11;92476.91;;;6.85;58.38
59289;BME280;45056;47.602;9.886;2022-11-20T12:55:08;92481.56;;;6.85;58.61
59289;BME280;45056;47.602;9.886;2022-11-20T12:57:50;92478.09;;;6.84;58.61
59289;BME280;45056;47.602;9.886;2022-11-20T13:00:25;92473.56;;;6.81;58.58
59289;BME280;45056;47.602;9.886;2022-11-20T13:03:07;92463.16;;;6.79;58.77
59289;BME280;45056;47.602;9.886;2022-11-20T13:06:01;92462.75;;;6.81;58.82
59289;BME280;45056;47.602;9.886;2022-11-20T13:08:39;92465.31;;;6.85;58.98
59289;BME280;45056;47.602;9.886;2022-11-20T13:11:18;92465.69;;;6.87;58.71
59289;BME280;45056;47.602;9.886;2022-11-20T13:14:09;92457.03;;;6.92;58.73
59289;BME280;45056;47.602;9.886;2022-11-20T13:16:51;92454.97;;;6.96;58.42
59289;BME280;45056;47.602;9.886;2022-11-20T13:19:26;92449.44;;;7.00;58.58
59289;BME280;45056;47.602;9.886;2022-11-20T13:21:56;92443.22;;;7.03;58.55
59289;BME280;45056;47.602;9.886;2022-11-20T13:24:26;92447.97;;;7.12;58.55
59289;BME280;45056;47.602;9.886;2022-11-20T13:27:03;92442.78;;;7.17;58.49
59289;BME280;45056;47.602;9.886;2022-11-20T13:29:46;92443.09;;;7.19;58.36
59289;BME280;45056;47.602;9.886;2022-11-20T13:32:26;92435.75;;;7.20;58.45
59289;BME280;45056;47.602;9.886;2022-11-20T13:35:00;92434.25;;;7.19;58.33
59289;BME280;45056;47.602;9.886;2022-11-20T13:37:32;92427.31;;;7.18;58.30
59289;BME280;45056;47.602;9.886;2022-11-20T13:43:02;92422.31;;;7.16;58.18
59289;BME280;45056;47.602;9.886;2022-11-20T13:45:38;92417.34;;;7.15;58.22
59289;BME280;45056;47.602;9.886;2022-11-20T13:48:20;92413.44;;;7.16;58.04
59289;BME280;45056;47.602;9.886;2022-11-20T13:51:08;92417.66;;;7.17;58.00
59289;BME280;45056;47.602;9.886;2022-11-20T13:57:18;92408.69;;;7.20;57.25